Phoenix, Arizona
Traffic Map
Current Weather Conditions
Phoenix, Arizona
Few Clouds
Few Clouds
34°
Feels Like: 34°
Wind Chill: 34° Ceiling: Unl
Heat Index: 34° Visibility: 10mi
Dew Point: 13° Wind: 8mph
Humidity: 27% Direction: 250° (WSW)
Pressure: 29.74in Gusts: 0mph
Raw Report DataKPHX 200151Z 25007KT 10SM FEW070 FEW230 34/13 A2974 RMK AO2 SLP049 CB DSNT E AND S T03440128
Traffic Incident Summary
Active as of:
Severity:
Category:
InformationThere was an issue retrieving the traffic information for this location. Please try a different location or try again shortly.
Advertisements
Track Severe Weather on mobile